Time,TemperatureF,DewpointF,PressureIn,WindDirection,WindDirectionDegrees,WindSpeedMPH,WindSpeedGustMPH,Humidity,HourlyPrecipIn,Conditions,Clouds,dailyrainin,SoftwareType,DateUTC
2013-06-29 00:01:00,66.4,63.7,29.42,West,260,0.0,0.0,91,0.02,RA,,0.00,WeatherDisplay:10.37,2013-06-29 04:01:00,
2013-06-29 00:04:00,66.3,63.6,29.42,West,260,0.0,0.0,91,0.01,RA,,0.00,WeatherDisplay:10.37,2013-06-29 04:04:00,
2013-06-29 00:05:00,66.3,63.6,29.42,West,261,0.0,0.0,91,0.01,RA,,0.00,WeatherDisplay:10.37,2013-06-29 04:05:00,
2013-06-29 00:10:00,66.3,63.9,29.42,West,264,0.0,0.0,92,0.00,CLR,,0.00,WeatherDisplay:10.37,2013-06-29 04:10:00,
2013-06-29 00:15:00,66.1,63.7,29.42,WNW,284,2.8,4.6,92,0.00,CLR,,0.00,WeatherDisplay:10.37,2013-06-29 04:15:00,
2013-06-29 00:20:00,66.1,63.7,29.42,SW,224,0.1,2.3,92,0.00,CLR,,0.00,WeatherDisplay:10.37,2013-06-29 04:20:00,
2013-06-29 00:25:00,66.1,63.7,29.42,SW,224,0.0,0.0,92,0.00,CLR,,0.00,WeatherDisplay:10.37,2013-06-29 04:25:00,
2013-06-29 00:30:00,66.0,63.6,29.42,SW,223,0.0,0.0,92,0.00,CLR,,0.00,WeatherDisplay:10.37,2013-06-29 04:30:00,
2013-06-29 00:35:00,66.0,63.6,29.42,SW,223,0.0,0.0,92,0.00,CLR,,0.00,WeatherDisplay:10.37,2013-06-29 04:35:00,
2013-06-29 00:40:00,66.0,63.6,29.43,SW,227,0.0,0.0,92,0.00,CLR,,0.00,WeatherDisplay:10.37,2013-06-29 04:40:00,
2013-06-29 00:45:00,66.0,63.9,29.42,SSW,195,0.0,0.0,93,0.00,CLR,,0.00,WeatherDisplay:10.37,2013-06-29 04:45:00,
2013-06-29 00:51:00,66.0,63.9,29.42,SSW,205,0.0,0.0,93,0.00,CLR,,0.00,WeatherDisplay:10.37,2013-06-29 04:51:00,
2013-06-29 00:56:00,65.8,63.7,29.42,SSW,205,0.0,0.0,93,0.00,CLR,,0.00,WeatherDisplay:10.37,2013-06-29 04:56:00,
2013-06-29 01:01:00,65.8,63.7,29.43,SSW,205,0.0,0.0,93,0.00,CLR,,0.00,WeatherDisplay:10.37,2013-06-29 05:01:00,
2013-06-29 01:06:00,65.8,63.7,29.43,SSW,205,0.0,0.0,93,0.00,CLR,,0.00,WeatherDisplay:10.37,2013-06-29 05:06:00,
2013-06-29 01:11:00,65.6,63.5,29.43,SSW,206,0.0,0.0,93,0.00,CLR,,0.00,WeatherDisplay:10.37,2013-06-29 05:11:00,
2013-06-29 01:16:00,65.6,63.5,29.43,SSW,206,0.0,0.0,93,0.00,CLR,,0.00,WeatherDisplay:10.37,2013-06-29 05:16:00,
2013-06-29 01:21:00,65.5,63.4,29.43,SSW,206,0.0,0.0,93,0.00,CLR,,0.00,WeatherDisplay:10.37,2013-06-29 05:21:00,
2013-06-29 01:26:00,65.5,63.4,29.42,SSW,206,0.0,0.0,93,0.00,CLR,,0.00,WeatherDisplay:10.37,2013-06-29 05:26:00,
2013-06-29 01:32:00,65.3,63.2,29.43,SSW,206,0.0,0.0,93,0.00,CLR,,0.00,WeatherDisplay:10.37,2013-06-29 05:32:00,
2013-06-29 01:37:00,65.3,63.5,29.43,SSW,206,0.0,0.0,94,0.00,CLR,,0.00,WeatherDisplay:10.37,2013-06-29 05:37:00,
2013-06-29 01:42:00,65.2,63.4,29.43,SSW,206,0.0,0.0,94,0.00,CLR,,0.00,WeatherDisplay:10.37,2013-06-29 05:42:00,
2013-06-29 01:47:00,65.2,63.4,29.43,SSW,206,0.0,0.0,94,0.00,CLR,,0.00,WeatherDisplay:10.37,2013-06-29 05:47:00,
2013-06-29 01:53:00,65.2,63.4,29.43,SSW,206,0.0,0.0,94,0.00,CLR,,0.00,WeatherDisplay:10.37,2013-06-29 05:53:00,
2013-06-29 01:58:00,65.2,63.4,29.43,SSW,206,0.0,0.0,94,0.00,CLR,,0.00,WeatherDisplay:10.37,2013-06-29 05:58:00,
2013-06-29 02:03:00,65.2,63.4,29.43,SSW,206,0.0,0.0,94,0.00,CLR,,0.00,WeatherDisplay:10.37,2013-06-29 06:03:00,
2013-06-29 02:08:00,65.2,63.4,29.43,SSW,206,0.0,0.0,94,0.00,CLR,,0.00,WeatherDisplay:10.37,2013-06-29 06:08:00,
2013-06-29 02:13:00,65.0,63.2,29.43,SSW,206,0.0,0.0,94,0.00,CLR,,0.00,WeatherDisplay:10.37,2013-06-29 06:13:00,
2013-06-29 02:18:00,65.0,63.2,29.43,SSW,206,0.0,0.0,94,0.00,CLR,,0.00,WeatherDisplay:10.37,2013-06-29 06:18:00,
2013-06-29 02:23:00,65.0,63.2,29.42,SSW,206,0.0,0.0,94,0.00,CLR,,0.00,WeatherDisplay:10.37,2013-06-29 06:23:00,
2013-06-29 02:29:00,64.8,63.0,29.43,SSW,206,0.0,0.0,94,0.00,CLR,,0.00,WeatherDisplay:10.37,2013-06-29 06:29:00,
2013-06-29 02:34:00,64.8,63.3,29.42,SSW,206,0.0,0.0,95,0.00,CLR,,0.00,WeatherDisplay:10.37,2013-06-29 06:34:00,
2013-06-29 02:39:00,64.8,63.3,29.42,SSW,206,0.0,0.0,95,0.00,CLR,,0.00,WeatherDisplay:10.37,2013-06-29 06:39:00,
2013-06-29 02:45:00,64.8,63.3,29.42,SSW,208,0.0,0.0,95,0.01,RA,,0.01,WeatherDisplay:10.37,2013-06-29 06:45:00,
2013-06-29 02:50:00,64.7,63.2,29.42,SSW,208,0.0,0.0,95,0.01,RA,,0.01,WeatherDisplay:10.37,2013-06-29 06:50:00,
2013-06-29 02:55:00,64.7,63.2,29.42,SSW,208,0.0,0.0,95,0.01,CLR,,0.01,WeatherDisplay:10.37,2013-06-29 06:55:00,
2013-06-29 03:00:00,64.7,63.2,29.42,SSW,208,0.0,0.0,95,0.01,CLR,,0.01,WeatherDisplay:10.37,2013-06-29 07:00:00,
2013-06-29 03:06:00,64.5,63.0,29.42,SSW,208,0.0,0.0,95,0.01,CLR,,0.01,WeatherDisplay:10.37,2013-06-29 07:06:00,
2013-06-29 03:11:00,64.8,63.3,29.41,SSW,208,0.0,0.0,95,0.01,CLR,,0.01,WeatherDisplay:10.37,2013-06-29 07:11:00,
2013-06-29 03:16:00,65.0,63.5,29.41,SSW,208,0.0,0.0,95,0.01,CLR,,0.01,WeatherDisplay:10.37,2013-06-29 07:16:00,
2013-06-29 03:21:00,64.8,63.3,29.41,SSW,208,0.0,0.0,95,0.01,CLR,,0.01,WeatherDisplay:10.37,2013-06-29 07:21:00,
2013-06-29 03:26:00,64.8,63.3,29.42,SSW,208,0.0,0.0,95,0.01,CLR,,0.01,WeatherDisplay:10.37,2013-06-29 07:26:00,
2013-06-29 03:31:00,64.8,63.3,29.42,SSW,208,0.0,0.0,95,0.01,CLR,,0.01,WeatherDisplay:10.37,2013-06-29 07:31:00,
2013-06-29 03:36:00,64.8,63.3,29.42,SSW,208,0.0,0.0,95,0.01,CLR,,0.01,WeatherDisplay:10.37,2013-06-29 07:36:00,
2013-06-29 03:41:00,64.8,63.3,29.42,SSW,208,0.0,0.0,95,0.01,CLR,,0.01,WeatherDisplay:10.37,2013-06-29 07:41:00,
2013-06-29 03:46:00,64.8,63.3,29.42,SSW,208,0.0,0.0,95,0.01,CLR,,0.01,WeatherDisplay:10.37,2013-06-29 07:46:00,
2013-06-29 03:51:00,64.8,63.3,29.42,SSW,208,0.0,0.0,95,0.00,CLR,,0.01,WeatherDisplay:10.37,2013-06-29 07:51:00,
2013-06-29 03:56:00,64.8,63.3,29.42,SSW,208,0.0,0.0,95,0.00,CLR,,0.01,WeatherDisplay:10.37,2013-06-29 07:56:00,
2013-06-29 04:01:00,65.0,63.5,29.42,SSW,208,0.0,0.0,95,0.00,CLR,,0.01,WeatherDisplay:10.37,2013-06-29 08:01:00,
2013-06-29 04:07:00,65.0,63.5,29.43,SSW,208,0.0,0.0,95,0.00,CLR,,0.01,WeatherDisplay:10.37,2013-06-29 08:07:00,
2013-06-29 04:12:00,64.8,63.3,29.44,SSW,208,0.0,0.0,95,0.00,CLR,,0.01,WeatherDisplay:10.37,2013-06-29 08:12:00,
2013-06-29 04:17:00,64.8,63.6,29.44,SSW,208,0.0,0.0,96,0.00,CLR,,0.01,WeatherDisplay:10.37,2013-06-29 08:17:00,
2013-06-29 04:22:00,64.8,63.6,29.44,SSW,208,0.0,0.0,96,0.00,CLR,,0.01,WeatherDisplay:10.37,2013-06-29 08:22:00,
2013-06-29 04:27:00,65.0,63.8,29.44,SSW,209,0.0,0.0,96,0.00,CLR,,0.01,WeatherDisplay:10.37,2013-06-29 08:27:00,
2013-06-29 04:32:00,65.2,64.0,29.44,SSW,208,0.0,0.0,96,0.00,CLR,,0.01,WeatherDisplay:10.37,2013-06-29 08:32:00,
2013-06-29 04:37:00,65.5,64.3,29.44,SSW,208,0.0,0.0,96,0.00,CLR,,0.01,WeatherDisplay:10.37,2013-06-29 08:37:00,
2013-06-29 04:42:00,65.6,64.4,29.44,SSW,209,0.0,0.0,96,0.00,CLR,,0.01,WeatherDisplay:10.37,2013-06-29 08:42:00,
2013-06-29 04:47:00,65.6,64.4,29.44,SSW,208,0.0,0.0,96,0.00,CLR,,0.01,WeatherDisplay:10.37,2013-06-29 08:47:00,
2013-06-29 04:52:00,65.6,64.4,29.44,SSW,208,0.0,0.0,96,0.00,CLR,,0.01,WeatherDisplay:10.37,2013-06-29 08:52:00,
2013-06-29 04:58:00,65.5,64.3,29.44,SSW,208,0.0,0.0,96,0.00,CLR,,0.01,WeatherDisplay:10.37,2013-06-29 08:58:00,
2013-06-29 05:03:00,65.3,64.1,29.44,SSW,208,0.0,0.0,96,0.00,CLR,,0.01,WeatherDisplay:10.37,2013-06-29 09:03:00,
2013-06-29 05:08:00,65.3,64.1,29.45,SSW,209,0.0,0.0,96,0.00,CLR,,0.01,WeatherDisplay:10.37,2013-06-29 09:08:00,
2013-06-29 05:13:00,65.3,64.1,29.45,SSW,209,0.0,0.0,96,0.00,CLR,,0.01,WeatherDisplay:10.37,2013-06-29 09:13:00,
2013-06-29 05:18:00,65.5,64.3,29.45,SSW,209,0.0,0.0,96,0.00,CLR,,0.01,WeatherDisplay:10.37,2013-06-29 09:18:00,
2013-06-29 05:23:00,65.5,64.3,29.45,SSW,209,0.0,0.0,96,0.00,CLR,,0.01,WeatherDisplay:10.37,2013-06-29 09:23:00,
2013-06-29 05:28:00,65.5,64.3,29.45,SSW,209,0.0,0.0,96,0.00,CLR,,0.01,WeatherDisplay:10.37,2013-06-29 09:28:00,
2013-06-29 05:34:00,65.6,64.4,29.45,SSW,209,0.0,0.0,96,0.00,CLR,,0.01,WeatherDisplay:10.37,2013-06-29 09:34:00,
2013-06-29 05:39:00,65.6,64.4,29.45,SSW,209,0.0,0.0,96,0.00,CLR,,0.01,WeatherDisplay:10.37,2013-06-29 09:39:00,
2013-06-29 05:44:00,65.6,64.4,29.45,SSW,209,0.0,0.0,96,0.00,CLR,,0.01,WeatherDisplay:10.37,2013-06-29 09:44:00,
2013-06-29 05:49:00,65.6,64.4,29.45,SSW,209,0.0,0.0,96,0.00,CLR,,0.01,WeatherDisplay:10.37,2013-06-29 09:49:00,
2013-06-29 05:54:00,65.6,64.4,29.46,SSW,209,0.0,0.0,96,0.00,CLR,,0.01,WeatherDisplay:10.37,2013-06-29 09:54:00,
2013-06-29 05:59:00,65.8,64.6,29.47,SSW,208,0.0,0.0,96,0.00,CLR,,0.01,WeatherDisplay:10.37,2013-06-29 09:59:00,
2013-06-29 06:04:00,66.0,64.8,29.47,SSW,208,0.0,0.0,96,0.00,CLR,,0.01,WeatherDisplay:10.37,2013-06-29 10:04:00,
2013-06-29 06:09:00,65.8,64.6,29.47,SSW,208,0.0,0.0,96,0.00,CLR,,0.01,WeatherDisplay:10.37,2013-06-29 10:09:00,
2013-06-29 06:14:00,65.8,64.6,29.47,SSW,208,0.0,0.0,96,0.00,CLR,,0.01,WeatherDisplay:10.37,2013-06-29 10:14:00,
2013-06-29 06:19:00,66.0,64.8,29.47,SSW,208,0.0,0.0,96,0.00,CLR,,0.01,WeatherDisplay:10.37,2013-06-29 10:19:00,
2013-06-29 06:25:00,66.0,64.8,29.48,SSW,208,0.0,0.0,96,0.00,CLR,,0.01,WeatherDisplay:10.37,2013-06-29 10:25:00,
2013-06-29 06:30:00,66.1,64.9,29.48,SSW,208,0.0,0.0,96,0.00,CLR,,0.01,WeatherDisplay:10.37,2013-06-29 10:30:00,
2013-06-29 06:35:00,66.3,65.1,29.48,SSW,208,0.0,0.0,96,0.00,CLR,,0.01,WeatherDisplay:10.37,2013-06-29 10:35:00,
2013-06-29 06:40:00,66.3,65.1,29.49,SSW,209,0.0,0.0,96,0.00,CLR,,0.01,WeatherDisplay:10.37,2013-06-29 10:40:00,
2013-06-29 06:45:00,66.4,65.2,29.49,SSW,206,0.0,0.0,96,0.00,CLR,,0.01,WeatherDisplay:10.37,2013-06-29 10:45:00,
2013-06-29 06:50:00,66.4,65.2,29.49,SSW,198,0.0,1.2,96,0.00,CLR,,0.01,WeatherDisplay:10.37,2013-06-29 10:50:00,
2013-06-29 06:55:00,66.4,65.2,29.49,SSW,202,0.1,1.2,96,0.00,CLR,,0.01,WeatherDisplay:10.37,2013-06-29 10:55:00,
2013-06-29 07:00:00,66.6,65.4,29.49,SSW,198,1.7,3.5,96,0.00,CLR,,0.01,WeatherDisplay:10.37,2013-06-29 11:00:00,
2013-06-29 07:05:00,66.6,65.4,29.50,SSW,199,2.7,3.5,96,0.00,CLR,,0.01,WeatherDisplay:10.37,2013-06-29 11:05:00,
2013-06-29 07:10:00,66.6,65.4,29.50,SSE,160,0.0,0.0,96,0.00,CLR,,0.01,WeatherDisplay:10.37,2013-06-29 11:10:00,
2013-06-29 07:15:00,66.8,65.6,29.50,South,169,0.0,0.0,96,0.00,CLR,,0.01,WeatherDisplay:10.37,2013-06-29 11:15:00,
2013-06-29 07:20:00,66.8,65.6,29.50,South,172,0.0,0.0,96,0.00,CLR,,0.01,WeatherDisplay:10.37,2013-06-29 11:20:00,
2013-06-29 07:25:00,66.8,65.6,29.50,South,172,0.0,0.0,96,0.00,CLR,,0.01,WeatherDisplay:10.37,2013-06-29 11:25:00,
2013-06-29 07:30:00,66.8,65.6,29.50,South,175,0.0,0.0,96,0.00,CLR,,0.01,WeatherDisplay:10.37,2013-06-29 11:30:00,
2013-06-29 07:35:00,66.9,65.7,29.50,South,176,0.0,0.0,96,0.00,CLR,,0.01,WeatherDisplay:10.37,2013-06-29 11:35:00,
2013-06-29 07:40:00,66.9,65.7,29.49,South,178,0.0,0.0,96,0.00,CLR,,0.01,WeatherDisplay:10.37,2013-06-29 11:40:00,
2013-06-29 07:45:00,67.1,65.9,29.49,South,178,0.0,0.0,96,0.00,CLR,,0.01,WeatherDisplay:10.37,2013-06-29 11:45:00,
2013-06-29 07:50:00,67.3,66.1,29.49,South,178,0.0,0.0,96,0.00,CLR,,0.01,WeatherDisplay:10.37,2013-06-29 11:50:00,
2013-06-29 07:55:00,67.4,66.2,29.50,South,178,0.0,0.0,96,0.00,CLR,,0.01,WeatherDisplay:10.37,2013-06-29 11:55:00,
2013-06-29 08:01:00,67.4,66.2,29.50,South,186,0.0,0.0,96,0.00,CLR,,0.01,WeatherDisplay:10.37,2013-06-29 12:01:00,
2013-06-29 08:06:00,67.4,66.2,29.51,South,186,1.4,3.5,96,0.00,CLR,,0.01,WeatherDisplay:10.37,2013-06-29 12:06:00,
2013-06-29 08:11:00,67.8,66.6,29.51,South,191,2.2,3.5,96,0.00,CLR,,0.01,WeatherDisplay:10.37,2013-06-29 12:11:00,
2013-06-29 08:16:00,67.6,66.4,29.51,SSW,198,0.0,0.0,96,0.00,CLR,,0.01,WeatherDisplay:10.37,2013-06-29 12:16:00,
2013-06-29 08:21:00,67.8,66.6,29.51,South,185,0.9,2.3,96,0.00,CLR,,0.01,WeatherDisplay:10.37,2013-06-29 12:21:00,
2013-06-29 08:26:00,67.9,66.7,29.51,SW,219,0.0,0.0,96,0.00,CLR,,0.01,WeatherDisplay:10.37,2013-06-29 12:26:00,
2013-06-29 08:31:00,67.8,66.3,29.51,SW,220,1.8,2.3,95,0.00,CLR,,0.01,WeatherDisplay:10.37,2013-06-29 12:31:00,
2013-06-29 08:36:00,68.1,66.6,29.51,SSW,206,0.1,2.3,95,0.00,CLR,,0.01,WeatherDisplay:10.37,2013-06-29 12:36:00,
2013-06-29 08:41:00,68.8,67.3,29.51,SSW,205,2.2,6.0,95,0.00,CLR,,0.01,WeatherDisplay:10.37,2013-06-29 12:41:00,
2013-06-29 08:43:00,68.8,67.3,29.51,SW,217,2.0,5.8,95,0.00,CLR,,0.01,WeatherDisplay:10.37,2013-06-29 12:43:00,
2013-06-29 08:48:00,68.9,66.8,29.51,South,174,0.5,3.5,93,0.00,CLR,,0.01,WeatherDisplay:10.37,2013-06-29 12:48:00,
2013-06-29 08:53:00,69.4,67.3,29.51,South,189,0.4,3.5,93,0.00,CLR,,0.01,WeatherDisplay:10.37,2013-06-29 12:53:00,
2013-06-29 08:58:00,69.8,67.1,29.51,South,189,1.7,4.0,91,0.00,CLR,,0.01,WeatherDisplay:10.37,2013-06-29 12:58:00,
2013-06-29 09:03:00,69.6,66.2,29.52,SSE,167,5.0,11.0,89,0.00,CLR,,0.01,WeatherDisplay:10.37,2013-06-29 13:03:00,
2013-06-29 09:08:00,69.8,66.1,29.52,SSW,192,3.8,9.2,88,0.00,CLR,,0.01,WeatherDisplay:10.37,2013-06-29 13:08:00,
2013-06-29 09:13:00,70.1,66.0,29.52,SSW,192,1.1,4.6,87,0.00,CLR,,0.01,WeatherDisplay:10.37,2013-06-29 13:13:00,
2013-06-29 09:19:00,70.4,66.3,29.52,South,172,1.2,5.8,87,0.00,CLR,,0.01,WeatherDisplay:10.37,2013-06-29 13:19:00,
2013-06-29 09:24:00,70.6,65.9,29.52,South,188,4.8,8.1,85,0.00,CLR,,0.01,WeatherDisplay:10.37,2013-06-29 13:24:00,
2013-06-29 09:29:00,71.1,66.7,29.52,South,186,0.0,0.0,86,0.00,CLR,,0.01,WeatherDisplay:10.37,2013-06-29 13:29:00,
2013-06-29 09:34:00,71.3,66.6,29.52,SSW,196,1.7,3.5,85,0.00,CLR,,0.01,WeatherDisplay:10.37,2013-06-29 13:34:00,
2013-06-29 09:39:00,71.5,66.4,29.52,SW,217,2.4,6.9,84,0.00,CLR,,0.01,WeatherDisplay:10.37,2013-06-29 13:39:00,
2013-06-29 09:45:00,71.5,65.4,29.52,SW,219,0.0,0.0,81,0.00,CLR,,0.01,WeatherDisplay:10.37,2013-06-29 13:45:00,
2013-06-29 09:50:00,71.8,65.7,29.52,SSE,160,3.1,4.6,81,0.00,CLR,,0.01,WeatherDisplay:10.37,2013-06-29 13:50:00,
2013-06-29 09:55:00,72.3,65.8,29.51,SSW,202,3.3,4.6,80,0.00,CLR,,0.01,WeatherDisplay:10.37,2013-06-29 13:55:00,
2013-06-29 10:00:00,73.0,66.1,29.52,SSW,195,0.6,2.3,79,0.00,CLR,,0.01,WeatherDisplay:10.37,2013-06-29 14:00:00,
2013-06-29 10:05:00,73.2,65.6,29.52,SSW,203,1.3,3.5,77,0.00,CLR,,0.01,WeatherDisplay:10.37,2013-06-29 14:05:00,
2013-06-29 10:10:00,73.7,64.9,29.52,South,184,3.0,4.6,74,0.00,CLR,,0.01,WeatherDisplay:10.37,2013-06-29 14:10:00,
2013-06-29 10:15:00,73.9,64.3,29.52,South,181,5.7,9.2,72,0.00,CLR,,0.01,WeatherDisplay:10.37,2013-06-29 14:15:00,
2013-06-29 10:20:00,73.5,64.3,29.52,SSW,199,2.4,5.0,73,0.00,CLR,,0.01,WeatherDisplay:10.37,2013-06-29 14:20:00,
2013-06-29 10:25:00,73.5,64.7,29.52,SSE,165,1.2,5.8,74,0.00,CLR,,0.01,WeatherDisplay:10.37,2013-06-29 14:25:00,
2013-06-29 10:30:00,74.6,66.1,29.52,SSW,212,1.0,2.3,75,0.00,CLR,,0.01,WeatherDisplay:10.37,2013-06-29 14:30:00,
2013-06-29 10:35:00,75.1,66.6,29.52,South,181,2.0,3.5,75,0.00,CLR,,0.01,WeatherDisplay:10.37,2013-06-29 14:35:00,
2013-06-29 10:40:00,74.6,65.0,29.52,SSW,209,3.9,5.8,72,0.00,CLR,,0.01,WeatherDisplay:10.37,2013-06-29 14:40:00,
2013-06-29 10:45:00,74.0,64.4,29.52,South,179,4.0,6.9,72,0.00,CLR,,0.01,WeatherDisplay:10.37,2013-06-29 14:45:00,
2013-06-29 10:51:00,73.9,64.3,29.52,SSE,168,5.0,6.9,72,0.00,CLR,,0.01,WeatherDisplay:10.37,2013-06-29 14:51:00,
2013-06-29 10:56:00,74.2,65.0,29.52,SSW,203,4.7,8.1,73,0.00,CLR,,0.01,WeatherDisplay:10.37,2013-06-29 14:56:00,
2013-06-29 11:01:00,74.9,65.7,29.53,WSW,246,4.1,7.0,73,0.00,CLR,,0.01,WeatherDisplay:10.37,2013-06-29 15:01:00,
2013-06-29 11:06:00,75.1,65.1,29.53,SSW,206,2.5,6.9,71,0.00,CLR,,0.01,WeatherDisplay:10.37,2013-06-29 15:06:00,
2013-06-29 11:11:00,74.7,65.1,29.53,SSW,196,4.3,8.1,72,0.00,CLR,,0.01,WeatherDisplay:10.37,2013-06-29 15:11:00,
2013-06-29 11:17:00,75.1,64.2,29.53,South,174,5.5,9.2,69,0.00,CLR,,0.01,WeatherDisplay:10.37,2013-06-29 15:17:00,
2013-06-29 11:22:00,75.4,64.5,29.53,SW,223,1.4,8.0,69,0.00,CLR,,0.01,WeatherDisplay:10.37,2013-06-29 15:22:00,
2013-06-29 11:27:00,75.8,64.5,29.52,SSE,161,5.0,9.2,68,0.00,CLR,,0.01,WeatherDisplay:10.37,2013-06-29 15:27:00,
2013-06-29 11:32:00,75.6,63.4,29.53,WSW,257,5.5,8.1,66,0.00,CLR,,0.01,WeatherDisplay:10.37,2013-06-29 15:32:00,
2013-06-29 11:37:00,76.3,64.5,29.52,South,174,2.9,5.8,67,0.00,CLR,,0.01,WeatherDisplay:10.37,2013-06-29 15:37:00,
2013-06-29 11:42:00,76.3,64.1,29.52,SSW,192,7.4,11.5,66,0.00,CLR,,0.01,WeatherDisplay:10.37,2013-06-29 15:42:00,
2013-06-29 11:47:00,76.5,64.7,29.52,SSE,155,3.2,9.2,67,0.00,CLR,,0.01,WeatherDisplay:10.37,2013-06-29 15:47:00,
2013-06-29 11:52:00,76.3,64.1,29.53,South,178,4.9,5.8,66,0.00,CLR,,0.01,WeatherDisplay:10.37,2013-06-29 15:52:00,
2013-06-29 11:57:00,76.7,64.5,29.52,SW,222,5.0,5.0,66,0.00,CLR,,0.01,WeatherDisplay:10.37,2013-06-29 15:57:00,
2013-06-29 12:03:00,76.7,64.5,29.52,South,186,1.6,6.9,66,0.00,CLR,,0.01,WeatherDisplay:10.37,2013-06-29 16:03:00,
2013-06-29 12:08:00,77.6,65.8,29.52,South,181,6.1,6.1,67,0.00,CLR,,0.01,WeatherDisplay:10.37,2013-06-29 16:08:00,
2013-06-29 12:13:00,77.2,64.1,29.53,South,174,5.1,8.1,64,0.00,CLR,,0.01,WeatherDisplay:10.37,2013-06-29 16:13:00,
2013-06-29 12:18:00,77.6,64.9,29.52,South,185,1.9,4.6,65,0.00,CLR,,0.01,WeatherDisplay:10.37,2013-06-29 16:18:00,
2013-06-29 12:23:00,78.3,65.6,29.52,SW,223,3.5,5.8,65,0.00,CLR,,0.01,WeatherDisplay:10.37,2013-06-29 16:23:00,
2013-06-29 12:28:00,78.5,65.3,29.52,South,188,3.8,5.8,64,0.00,CLR,,0.01,WeatherDisplay:10.37,2013-06-29 16:28:00,
2013-06-29 12:33:00,78.5,64.4,29.52,SSW,210,6.8,8.1,62,0.00,CLR,,0.01,WeatherDisplay:10.37,2013-06-29 16:33:00,
2013-06-29 12:38:00,78.5,65.8,29.52,South,188,2.6,4.6,65,0.00,CLR,,0.01,WeatherDisplay:10.37,2013-06-29 16:38:00,
2013-06-29 12:44:00,77.9,63.4,29.52,South,184,8.9,13.8,61,0.00,CLR,,0.01,WeatherDisplay:10.37,2013-06-29 16:44:00,
2013-06-29 12:49:00,77.7,65.0,29.52,South,186,6.7,11.5,65,0.00,CLR,,0.01,WeatherDisplay:10.37,2013-06-29 16:49:00,
2013-06-29 12:54:00,78.1,65.8,29.52,South,182,4.2,6.9,66,0.00,CLR,,0.01,WeatherDisplay:10.37,2013-06-29 16:54:00,
2013-06-29 12:59:00,78.3,65.1,29.52,West,271,4.1,6.9,64,0.00,CLR,,0.01,WeatherDisplay:10.37,2013-06-29 16:59:00,
2013-06-29 13:04:00,78.6,65.4,29.52,South,181,2.9,5.8,64,0.00,CLR,,0.01,WeatherDisplay:10.37,2013-06-29 17:04:00,
2013-06-29 13:09:00,78.5,65.8,29.52,SSW,193,6.4,8.1,65,0.00,CLR,,0.01,WeatherDisplay:10.37,2013-06-29 17:09:00,
2013-06-29 13:14:00,78.3,64.7,29.52,WSW,239,4.2,6.9,63,0.00,CLR,,0.01,WeatherDisplay:10.37,2013-06-29 17:14:00,
2013-06-29 13:19:00,78.1,64.9,29.52,SSW,198,2.7,4.6,64,0.00,CLR,,0.01,WeatherDisplay:10.37,2013-06-29 17:19:00,
2013-06-29 13:24:00,78.1,65.4,29.52,SSW,206,5.0,7.0,65,0.00,CLR,,0.01,WeatherDisplay:10.37,2013-06-29 17:24:00,
2013-06-29 13:29:00,78.1,65.8,29.52,SSE,161,1.9,3.5,66,0.00,CLR,,0.01,WeatherDisplay:10.37,2013-06-29 17:29:00,
2013-06-29 13:34:00,78.1,64.9,29.52,WSW,246,1.3,3.5,64,0.00,CLR,,0.01,WeatherDisplay:10.37,2013-06-29 17:34:00,
2013-06-29 13:39:00,79.0,66.2,29.52,South,186,4.9,11.0,65,0.00,CLR,,0.01,WeatherDisplay:10.37,2013-06-29 17:39:00,
2013-06-29 13:40:00,78.8,64.2,29.52,SSW,196,7.5,11.5,61,0.00,CLR,,0.01,WeatherDisplay:10.37,2013-06-29 17:40:00,
2013-06-29 13:45:00,79.0,64.4,29.52,SSE,165,5.7,11.5,61,0.00,CLR,,0.01,WeatherDisplay:10.37,2013-06-29 17:45:00,
2013-06-29 13:50:00,79.4,65.7,29.52,SSW,192,0.5,6.9,63,0.00,CLR,,0.01,WeatherDisplay:10.37,2013-06-29 17:50:00,
2013-06-29 13:56:00,80.1,65.4,29.52,South,176,4.9,6.9,61,0.00,CLR,,0.01,WeatherDisplay:10.37,2013-06-29 17:56:00,
2013-06-29 14:01:00,79.6,65.0,29.52,SW,217,4.4,11.5,61,0.00,CLR,,0.01,WeatherDisplay:10.37,2013-06-29 18:01:00,
2013-06-29 14:06:00,79.2,65.5,29.52,WNW,296,1.7,5.8,63,0.00,CLR,,0.01,WeatherDisplay:10.37,2013-06-29 18:06:00,
2013-06-29 14:11:00,79.6,64.5,29.52,South,189,4.0,5.8,60,0.00,CLR,,0.01,WeatherDisplay:10.37,2013-06-29 18:11:00,
2013-06-29 14:16:00,79.8,64.7,29.52,NW,304,3.4,6.9,60,0.00,CLR,,0.01,WeatherDisplay:10.37,2013-06-29 18:16:00,
2013-06-29 14:21:00,79.6,65.4,29.52,South,174,0.5,3.5,62,0.00,CLR,,0.01,WeatherDisplay:10.37,2013-06-29 18:21:00,
2013-06-29 14:26:00,79.0,64.9,29.52,South,188,3.5,5.8,62,0.00,CLR,,0.01,WeatherDisplay:10.37,2013-06-29 18:26:00,
2013-06-29 14:31:00,78.6,65.4,29.52,SSW,206,7.1,11.5,64,0.00,CLR,,0.01,WeatherDisplay:10.37,2013-06-29 18:31:00,
2013-06-29 14:36:00,79.0,65.3,29.52,SSE,147,3.5,11.5,63,0.00,CLR,,0.01,WeatherDisplay:10.37,2013-06-29 18:36:00,
2013-06-29 14:42:00,79.4,63.8,29.52,WSW,256,4.6,9.2,59,0.00,CLR,,0.01,WeatherDisplay:10.37,2013-06-29 18:42:00,
2013-06-29 14:47:00,80.3,64.7,29.52,SW,232,3.2,10.0,59,0.00,CLR,,0.01,WeatherDisplay:10.37,2013-06-29 18:47:00,
2013-06-29 14:52:00,80.5,64.4,29.52,SSW,206,4.5,8.1,58,0.00,CLR,,0.01,WeatherDisplay:10.37,2013-06-29 18:52:00,
2013-06-29 14:57:00,79.6,62.5,29.52,SSW,206,3.6,12.7,56,0.00,CLR,,0.01,WeatherDisplay:10.37,2013-06-29 18:57:00,
2013-06-29 15:02:00,79.9,63.8,29.53,SSW,213,4.3,9.2,58,0.00,CLR,,0.01,WeatherDisplay:10.37,2013-06-29 19:02:00,
2013-06-29 15:08:00,80.3,63.7,29.52,South,171,5.4,8.1,57,0.00,CLR,,0.01,WeatherDisplay:10.37,2013-06-29 19:08:00,
2013-06-29 15:13:00,79.9,63.8,29.53,SSW,192,5.4,6.9,58,0.00,CLR,,0.01,WeatherDisplay:10.37,2013-06-29 19:13:00,
2013-06-29 15:18:00,79.2,63.1,29.53,SSW,192,5.4,10.4,58,0.00,CLR,,0.01,WeatherDisplay:10.37,2013-06-29 19:18:00,
2013-06-29 15:23:00,79.6,63.0,29.53,SW,220,1.3,6.9,57,0.00,CLR,,0.01,WeatherDisplay:10.37,2013-06-29 19:23:00,
2013-06-29 15:28:00,79.6,63.0,29.53,SE,144,6.3,11.5,57,0.00,CLR,,0.01,WeatherDisplay:10.37,2013-06-29 19:28:00,
2013-06-29 15:33:00,79.4,63.3,29.53,SSE,162,2.2,6.9,58,0.00,CLR,,0.01,WeatherDisplay:10.37,2013-06-29 19:33:00,
2013-06-29 15:38:00,79.9,62.8,29.53,SSW,208,10.1,12.7,56,0.00,CLR,,0.01,WeatherDisplay:10.37,2013-06-29 19:38:00,
2013-06-29 15:43:00,79.6,63.5,29.53,SSW,206,2.2,5.8,58,0.00,CLR,,0.01,WeatherDisplay:10.37,2013-06-29 19:43:00,
2013-06-29 15:48:00,79.9,64.3,29.53,SSW,200,3.1,5.8,59,0.00,CLR,,0.01,WeatherDisplay:10.37,2013-06-29 19:48:00,
2013-06-29 15:54:00,80.5,63.4,29.53,SW,232,3.5,8.1,56,0.00,CLR,,0.01,WeatherDisplay:10.37,2013-06-29 19:54:00,
2013-06-29 15:59:00,80.9,62.7,29.53,South,178,7.2,11.5,54,0.00,CLR,,0.01,WeatherDisplay:10.37,2013-06-29 19:59:00,
2013-06-29 16:04:00,80.9,63.7,29.53,West,261,1.2,3.5,56,0.00,CLR,,0.01,WeatherDisplay:10.37,2013-06-29 20:04:00,
2013-06-29 16:09:00,81.1,62.9,29.53,SSW,195,6.4,8.1,54,0.00,CLR,,0.01,WeatherDisplay:10.37,2013-06-29 20:09:00,
2013-06-29 16:14:00,80.5,63.4,29.53,SSW,195,3.6,8.1,56,0.00,CLR,,0.01,WeatherDisplay:10.37,2013-06-29 20:14:00,
2013-06-29 16:19:00,80.3,62.1,29.53,SW,230,6.9,11.5,54,0.00,CLR,,0.01,WeatherDisplay:10.37,2013-06-29 20:19:00,
2013-06-29 16:24:00,80.9,62.7,29.53,South,189,7.6,10.4,54,0.00,CLR,,0.01,WeatherDisplay:10.37,2013-06-29 20:24:00,
2013-06-29 16:30:00,81.1,63.4,29.53,SSW,200,0.6,10.4,55,0.00,CLR,,0.01,WeatherDisplay:10.37,2013-06-29 20:30:00,
2013-06-29 16:35:00,81.8,64.6,29.53,South,176,1.5,6.9,56,0.00,CLR,,0.01,WeatherDisplay:10.37,2013-06-29 20:35:00,
2013-06-29 16:40:00,81.8,62.5,29.53,South,182,7.2,12.7,52,0.00,CLR,,0.01,WeatherDisplay:10.37,2013-06-29 20:40:00,
2013-06-29 16:45:00,81.8,63.5,29.53,SSW,209,1.3,6.9,54,0.00,CLR,,0.01,WeatherDisplay:10.37,2013-06-29 20:45:00,
2013-06-29 16:50:00,81.6,62.8,29.53,South,189,4.1,6.0,53,0.00,CLR,,0.01,WeatherDisplay:10.37,2013-06-29 20:50:00,
2013-06-29 16:55:00,81.1,63.4,29.53,South,185,1.6,2.3,55,0.00,CLR,,0.01,WeatherDisplay:10.37,2013-06-29 20:55:00,
2013-06-29 17:00:00,80.9,62.2,29.53,South,182,6.3,11.5,53,0.00,CLR,,0.01,WeatherDisplay:10.37,2013-06-29 21:00:00,
2013-06-29 17:06:00,80.9,62.7,29.53,SSW,210,5.8,11.5,54,0.00,CLR,,0.01,WeatherDisplay:10.37,2013-06-29 21:06:00,
2013-06-29 17:11:00,81.1,63.9,29.53,WSW,258,2.4,6.0,56,0.00,CLR,,0.01,WeatherDisplay:10.37,2013-06-29 21:11:00,
2013-06-29 17:16:00,81.1,62.3,29.53,South,176,2.2,5.8,53,0.00,CLR,,0.01,WeatherDisplay:10.37,2013-06-29 21:16:00,
2013-06-29 17:21:00,81.1,62.9,29.53,SW,220,2.3,8.1,54,0.00,CLR,,0.01,WeatherDisplay:10.37,2013-06-29 21:21:00,
2013-06-29 17:26:00,81.2,63.0,29.54,SW,217,3.0,6.9,54,0.00,CLR,,0.01,WeatherDisplay:10.37,2013-06-29 21:26:00,
2013-06-29 17:32:00,81.1,62.9,29.53,SSW,202,1.0,8.0,54,0.00,CLR,,0.01,WeatherDisplay:10.37,2013-06-29 21:32:00,
2013-06-29 17:37:00,80.9,62.7,29.53,SW,229,3.3,6.9,54,0.00,CLR,,0.01,WeatherDisplay:10.37,2013-06-29 21:37:00,
2013-06-29 17:42:00,80.9,61.6,29.53,South,188,0.0,0.0,52,0.00,CLR,,0.01,WeatherDisplay:10.37,2013-06-29 21:42:00,
2013-06-29 17:47:00,81.2,63.0,29.53,SW,222,0.0,0.0,54,0.00,CLR,,0.01,WeatherDisplay:10.37,2013-06-29 21:47:00,
2013-06-29 17:52:00,81.1,62.9,29.53,South,185,2.3,8.1,54,0.00,CLR,,0.01,WeatherDisplay:10.37,2013-06-29 21:52:00,
2013-06-29 17:57:00,81.1,62.9,29.53,SW,215,4.3,10.4,54,0.00,CLR,,0.01,WeatherDisplay:10.37,2013-06-29 21:57:00,
2013-06-29 18:02:00,80.9,62.7,29.53,SSW,210,2.0,2.0,54,0.00,CLR,,0.01,WeatherDisplay:10.37,2013-06-29 22:02:00,
2013-06-29 18:07:00,80.7,63.0,29.54,SSW,206,4.0,5.8,55,0.00,CLR,,0.01,WeatherDisplay:10.37,2013-06-29 22:07:00,
2013-06-29 18:13:00,80.7,63.0,29.53,SSW,206,0.1,6.0,55,0.00,CLR,,0.01,WeatherDisplay:10.37,2013-06-29 22:13:00,
2013-06-29 18:18:00,80.7,64.1,29.53,South,179,0.0,0.0,57,0.00,CLR,,0.01,WeatherDisplay:10.37,2013-06-29 22:18:00,
2013-06-29 18:23:00,80.5,62.8,29.54,South,191,5.6,6.9,55,0.00,CLR,,0.01,WeatherDisplay:10.37,2013-06-29 22:23:00,
2013-06-29 18:28:00,80.3,62.7,29.54,South,182,3.0,5.8,55,0.00,CLR,,0.01,WeatherDisplay:10.37,2013-06-29 22:28:00,
2013-06-29 18:34:00,80.3,62.7,29.54,SSW,202,6.7,10.4,55,0.00,CLR,,0.01,WeatherDisplay:10.37,2013-06-29 22:34:00,
2013-06-29 18:39:00,80.3,62.1,29.54,South,185,5.3,8.1,54,0.00,CLR,,0.01,WeatherDisplay:10.37,2013-06-29 22:39:00,
2013-06-29 18:44:00,80.3,63.7,29.54,SW,230,4.1,6.0,57,0.00,CLR,,0.01,WeatherDisplay:10.37,2013-06-29 22:44:00,
2013-06-29 18:49:00,80.1,63.0,29.54,SSW,205,5.3,6.9,56,0.00,CLR,,0.01,WeatherDisplay:10.37,2013-06-29 22:49:00,
2013-06-29 18:54:00,79.9,62.8,29.54,SSW,206,0.9,1.0,56,0.00,CLR,,0.01,WeatherDisplay:10.37,2013-06-29 22:54:00,
2013-06-29 19:00:00,79.9,63.3,29.55,South,182,0.4,1.2,57,0.00,CLR,,0.01,WeatherDisplay:10.37,2013-06-29 23:00:00,
2013-06-29 19:05:00,79.9,62.8,29.55,South,189,0.0,0.0,56,0.00,CLR,,0.01,WeatherDisplay:10.37,2013-06-29 23:05:00,
2013-06-29 19:10:00,79.9,63.3,29.55,South,189,0.0,0.0,57,0.00,CLR,,0.01,WeatherDisplay:10.37,2013-06-29 23:10:00,
2013-06-29 19:15:00,79.9,62.3,29.55,SE,145,3.1,5.8,55,0.00,CLR,,0.01,WeatherDisplay:10.37,2013-06-29 23:15:00,
2013-06-29 19:20:00,79.8,62.7,29.55,SSW,196,1.2,3.5,56,0.00,CLR,,0.01,WeatherDisplay:10.37,2013-06-29 23:20:00,
2013-06-29 19:26:00,79.6,63.0,29.55,SSW,192,0.0,3.5,57,0.00,CLR,,0.01,WeatherDisplay:10.37,2013-06-29 23:26:00,
2013-06-29 19:31:00,79.4,62.8,29.55,SSW,193,0.0,0.0,57,0.00,CLR,,0.01,WeatherDisplay:10.37,2013-06-29 23:31:00,
2013-06-29 19:36:00,79.2,62.7,29.56,SSW,193,0.0,0.0,57,0.00,CLR,,0.01,WeatherDisplay:10.37,2013-06-29 23:36:00,
2013-06-29 19:41:00,79.2,63.1,29.56,SSW,193,0.0,0.0,58,0.00,CLR,,0.01,WeatherDisplay:10.37,2013-06-29 23:41:00,
2013-06-29 19:46:00,79.0,63.0,29.56,SSW,195,0.0,0.0,58,0.00,CLR,,0.01,WeatherDisplay:10.37,2013-06-29 23:46:00,
2013-06-29 19:51:00,79.0,63.0,29.56,SSW,195,0.0,0.0,58,0.00,CLR,,0.01,WeatherDisplay:10.37,2013-06-29 23:51:00,
2013-06-29 19:57:00,79.0,63.4,29.57,SSW,195,0.0,0.0,59,0.00,CLR,,0.01,WeatherDisplay:10.37,2013-06-29 23:57:00,
2013-06-29 20:02:00,79.4,63.8,29.57,SSW,195,0.0,0.0,59,0.00,CLR,,0.01,WeatherDisplay:10.37,2013-06-30 00:02:00,
2013-06-29 20:07:00,79.8,64.2,29.57,SSW,195,0.0,0.0,59,0.00,CLR,,0.01,WeatherDisplay:10.37,2013-06-30 00:07:00,
2013-06-29 20:13:00,79.8,65.2,29.57,SSW,195,0.0,0.0,61,0.00,CLR,,0.01,WeatherDisplay:10.37,2013-06-30 00:13:00,
2013-06-29 20:18:00,79.6,65.4,29.58,SSW,195,0.0,0.0,62,0.00,CLR,,0.01,WeatherDisplay:10.37,2013-06-30 00:18:00,
2013-06-29 20:23:00,79.0,65.8,29.58,SSW,195,0.0,0.0,64,0.00,CLR,,0.01,WeatherDisplay:10.37,2013-06-30 00:23:00,
2013-06-29 20:29:00,78.3,65.1,29.58,SSW,195,0.0,0.0,64,0.00,CLR,,0.01,WeatherDisplay:10.37,2013-06-30 00:29:00,
2013-06-29 20:34:00,77.7,65.0,29.58,SSW,195,0.0,0.0,65,0.00,CLR,,0.01,WeatherDisplay:10.37,2013-06-30 00:34:00,
2013-06-29 20:39:00,77.2,64.5,29.58,SSW,195,0.0,0.0,65,0.00,CLR,,0.01,WeatherDisplay:10.37,2013-06-30 00:39:00,
2013-06-29 20:44:00,76.7,64.0,29.59,SSW,195,0.0,0.0,65,0.00,CLR,,0.01,WeatherDisplay:10.37,2013-06-30 00:44:00,
2013-06-29 20:50:00,76.3,64.5,29.59,SSW,195,0.0,0.0,67,0.00,CLR,,0.01,WeatherDisplay:10.37,2013-06-30 00:50:00,
2013-06-29 20:55:00,76.0,65.5,29.59,SSW,195,0.0,0.0,70,0.00,CLR,,0.01,WeatherDisplay:10.37,2013-06-30 00:55:00,
2013-06-29 21:00:00,75.1,65.1,29.59,SSW,195,0.0,0.0,71,0.00,CLR,,0.01,WeatherDisplay:10.37,2013-06-30 01:00:00,
2013-06-29 21:05:00,74.2,64.2,29.59,SSW,195,0.0,0.0,71,0.00,CLR,,0.01,WeatherDisplay:10.37,2013-06-30 01:05:00,
2013-06-29 21:10:00,73.7,64.5,29.59,SSW,195,0.0,0.0,73,0.00,CLR,,0.01,WeatherDisplay:10.37,2013-06-30 01:10:00,
2013-06-29 21:15:00,73.2,64.0,29.60,SSW,195,0.0,0.0,73,0.00,CLR,,0.01,WeatherDisplay:10.37,2013-06-30 01:15:00,
2013-06-29 21:21:00,73.0,63.4,29.60,SSW,195,0.0,0.0,72,0.00,CLR,,0.01,WeatherDisplay:10.37,2013-06-30 01:21:00,
2013-06-29 21:26:00,73.0,63.8,29.60,SSW,195,0.0,0.0,73,0.00,CLR,,0.01,WeatherDisplay:10.37,2013-06-30 01:26:00,
2013-06-29 21:31:00,72.8,63.6,29.60,SSW,195,0.0,0.0,73,0.00,CLR,,0.01,WeatherDisplay:10.37,2013-06-30 01:31:00,
2013-06-29 21:36:00,72.7,63.5,29.61,SSW,195,0.0,0.0,73,0.00,CLR,,0.01,WeatherDisplay:10.37,2013-06-30 01:36:00,
2013-06-29 21:41:00,72.5,63.4,29.61,SSW,195,0.0,0.0,73,0.00,CLR,,0.01,WeatherDisplay:10.37,2013-06-30 01:41:00,
2013-06-29 21:46:00,72.3,63.5,29.61,SSW,195,0.0,0.0,74,0.00,CLR,,0.01,WeatherDisplay:10.37,2013-06-30 01:46:00,
2013-06-29 21:51:00,72.1,63.4,29.61,SSW,195,0.0,0.0,74,0.00,CLR,,0.01,WeatherDisplay:10.37,2013-06-30 01:51:00,
2013-06-29 21:57:00,72.0,63.3,29.61,SSW,195,0.0,0.0,74,0.00,CLR,,0.01,WeatherDisplay:10.37,2013-06-30 01:57:00,
2013-06-29 22:02:00,71.8,63.4,29.61,SSW,195,0.0,0.0,75,0.00,CLR,,0.01,WeatherDisplay:10.37,2013-06-30 02:02:00,
2013-06-29 22:07:00,71.5,63.9,29.61,SSW,195,0.0,0.0,77,0.00,CLR,,0.01,WeatherDisplay:10.37,2013-06-30 02:07:00,
2013-06-29 22:12:00,71.1,63.9,29.61,SSW,195,0.0,0.0,78,0.00,CLR,,0.01,WeatherDisplay:10.37,2013-06-30 02:12:00,
2013-06-29 22:17:00,70.9,64.4,29.61,SSW,195,0.0,0.0,80,0.00,CLR,,0.01,WeatherDisplay:10.37,2013-06-30 02:17:00,
2013-06-29 22:22:00,70.8,64.7,29.61,SSW,195,0.0,0.0,81,0.00,CLR,,0.01,WeatherDisplay:10.37,2013-06-30 02:22:00,
2013-06-29 22:27:00,70.4,64.3,29.61,SSW,195,0.0,0.0,81,0.00,CLR,,0.01,WeatherDisplay:10.37,2013-06-30 02:27:00,
2013-06-29 22:32:00,70.3,63.8,29.61,SSW,195,0.0,0.0,80,0.00,CLR,,0.01,WeatherDisplay:10.37,2013-06-30 02:32:00,
2013-06-29 22:38:00,70.3,63.8,29.61,SSW,195,0.0,0.0,80,0.00,CLR,,0.01,WeatherDisplay:10.37,2013-06-30 02:38:00,
2013-06-29 22:43:00,70.1,64.0,29.61,SSW,195,0.0,0.0,81,0.00,CLR,,0.01,WeatherDisplay:10.37,2013-06-30 02:43:00,
2013-06-29 22:48:00,69.9,64.2,29.61,SSW,195,0.0,0.0,82,0.00,CLR,,0.01,WeatherDisplay:10.37,2013-06-30 02:48:00,
2013-06-29 22:53:00,69.6,64.2,29.61,SSW,195,0.0,0.0,83,0.00,CLR,,0.01,WeatherDisplay:10.37,2013-06-30 02:53:00,
2013-06-29 22:58:00,69.4,64.0,29.61,SSW,195,0.0,0.0,83,0.00,CLR,,0.01,WeatherDisplay:10.37,2013-06-30 02:58:00,
2013-06-29 23:03:00,69.3,63.9,29.61,SSW,195,0.0,0.0,83,0.00,CLR,,0.01,WeatherDisplay:10.37,2013-06-30 03:03:00,
2013-06-29 23:08:00,69.1,64.1,29.62,SSW,195,0.0,0.0,84,0.00,CLR,,0.01,WeatherDisplay:10.37,2013-06-30 03:08:00,
2013-06-29 23:13:00,68.8,63.8,29.62,SSW,195,0.0,0.0,84,0.00,CLR,,0.01,WeatherDisplay:10.37,2013-06-30 03:13:00,
2013-06-29 23:18:00,68.4,63.7,29.62,SSW,195,0.0,0.0,85,0.00,CLR,,0.01,WeatherDisplay:10.37,2013-06-30 03:18:00,
2013-06-29 23:23:00,68.3,63.9,29.62,SSW,195,0.0,0.0,86,0.00,CLR,,0.01,WeatherDisplay:10.37,2013-06-30 03:23:00,
2013-06-29 23:28:00,68.1,64.1,29.62,SSW,195,0.0,0.0,87,0.00,CLR,,0.01,WeatherDisplay:10.37,2013-06-30 03:28:00,
2013-06-29 23:33:00,67.9,63.9,29.62,SSW,195,0.0,0.0,87,0.00,CLR,,0.01,WeatherDisplay:10.37,2013-06-30 03:33:00,
2013-06-29 23:38:00,67.9,63.9,29.63,SSW,195,0.0,0.0,87,0.00,CLR,,0.01,WeatherDisplay:10.37,2013-06-30 03:38:00,
2013-06-29 23:44:00,67.9,63.9,29.62,SSW,195,0.0,0.0,87,0.00,CLR,,0.01,WeatherDisplay:10.37,2013-06-30 03:44:00,
2013-06-29 23:49:00,67.8,64.1,29.62,SSW,195,0.0,0.0,88,0.00,CLR,,0.01,WeatherDisplay:10.37,2013-06-30 03:49:00,
2013-06-29 23:54:00,67.6,63.9,29.63,SSW,195,0.0,0.0,88,0.00,CLR,,0.01,WeatherDisplay:10.37,2013-06-30 03:54:00,
2013-06-29 23:59:00,67.4,63.7,29.63,SSW,195,0.0,0.0,88,0.00,CLR,,0.01,WeatherDisplay:10.37,2013-06-30 03:59:00,